createdAt,value
2017-11-18T09:32:46.121Z,5.89
2017-11-18T09:33:46.265Z,5.84
2017-11-18T09:34:47.138Z,5.88
2017-11-18T09:35:46.221Z,5.87
2017-11-18T09:36:46.726Z,5.88
2017-11-18T09:37:46.871Z,5.82
2017-11-18T09:38:46.429Z,5.91
2017-11-18T09:39:46.706Z,5.87
2017-11-18T09:40:46.495Z,5.89
2017-11-18T09:41:46.223Z,5.85
2017-11-18T09:42:46.176Z,5.84
2017-11-18T09:43:46.283Z,5.82
2017-11-18T09:44:46.553Z,5.87
2017-11-18T09:45:47.312Z,5.87
2017-11-18T09:46:47.150Z,5.85
2017-11-18T09:47:46.759Z,5.84
2017-11-18T09:48:46.967Z,5.91
2017-11-18T09:49:47.286Z,5.89
2017-11-18T09:50:46.111Z,5.92
2017-11-18T09:51:47.320Z,5.84
2017-11-18T09:52:46.456Z,5.88
2017-11-18T09:53:47.053Z,5.95
2017-11-18T09:54:47.374Z,6.05
2017-11-18T09:55:46.840Z,6.02
2017-11-18T09:56:47.251Z,6.03
2017-11-18T09:57:47.419Z,6.07
2017-11-18T09:58:47.349Z,6
2017-11-18T09:59:46.384Z,6.14
2017-11-18T10:00:47.213Z,6.07
2017-11-18T10:01:46.787Z,6.14
2017-11-18T10:02:47.492Z,6.09
2017-11-18T10:03:47.368Z,6.1
2017-11-18T10:04:46.518Z,6.17
2017-11-18T10:05:47.365Z,6.18
2017-11-18T10:06:47.481Z,6.21
2017-11-18T10:07:47.419Z,6.21
2017-11-18T10:08:47.060Z,6.18
2017-11-18T10:09:47.003Z,6.13
2017-11-18T10:10:47.086Z,6.18
2017-11-18T10:11:46.717Z,6.1
2017-11-18T10:12:47.813Z,6.09
2017-11-18T10:13:48.542Z,6.1
2017-11-18T10:14:48.612Z,6.09
2017-11-18T10:15:48.727Z,6.09
2017-11-18T10:16:48.325Z,6.03
2017-11-18T10:17:48.643Z,6.09
2017-11-18T10:18:48.686Z,6.03
2017-11-18T10:19:47.560Z,6.02
2017-11-18T10:20:48.001Z,5.95
2017-11-18T10:21:48.413Z,5.98
2017-11-18T10:22:48.818Z,5.91
2017-11-18T10:23:48.651Z,5.95
2017-11-18T10:24:49.420Z,5.98
2017-11-18T10:25:49.402Z,5.89
2017-11-18T10:26:49.365Z,5.98
2017-11-18T10:27:48.993Z,5.92
2017-11-18T10:28:48.823Z,6.02
2017-11-18T10:29:48.672Z,5.98
2017-11-18T10:30:49.057Z,5.88
2017-11-18T10:31:49.581Z,5.95
2017-11-18T10:32:49.669Z,5.92
2017-11-18T10:33:49.168Z,5.95
2017-11-18T10:34:48.673Z,5.87
2017-11-18T10:35:49.494Z,5.87
2017-11-18T10:36:48.782Z,5.87
2017-11-18T10:37:49.762Z,5.88
2017-11-18T10:38:49.810Z,5.82
2017-11-18T10:39:49.934Z,5.82
2017-11-18T10:40:49.957Z,5.78
2017-11-18T10:41:49.637Z,5.75
2017-11-18T10:42:48.788Z,5.84
2017-11-18T10:43:48.721Z,5.78
2017-11-18T10:44:49.195Z,5.81
2017-11-18T10:45:49.029Z,5.78
2017-11-18T10:46:49.117Z,5.8
2017-11-18T10:47:50.430Z,5.8
2017-11-18T10:48:50.351Z,5.78
2017-11-18T10:49:50.709Z,5.85
2017-11-18T10:50:50.712Z,5.87
2017-11-18T10:51:50.764Z,5.87
2017-11-18T10:52:51.161Z,5.81
2017-11-18T10:53:51.157Z,5.85
2017-11-18T10:54:50.927Z,6.03
2017-11-18T10:55:50.610Z,5.95
2017-11-18T10:56:50.964Z,6
2017-11-18T10:57:50.581Z,5.91
2017-11-18T10:58:50.640Z,6
2017-11-18T10:59:49.827Z,6.02
2017-11-18T11:00:50.493Z,5.96
2017-11-18T11:01:51.179Z,6.03
2017-11-18T11:02:49.749Z,6.02
2017-11-18T11:03:50.423Z,6.02
2017-11-18T11:04:50.295Z,6
2017-11-18T11:05:51.642Z,6.03
2017-11-18T11:06:51.478Z,6.03
2017-11-18T11:07:51.641Z,6.07
2017-11-18T11:08:51.530Z,5.99
2017-11-18T11:09:51.637Z,5.99
2017-11-18T11:10:50.924Z,6.02
2017-11-18T11:11:51.054Z,5.99
2017-11-18T11:12:50.941Z,6.09
2017-11-18T11:13:51.358Z,6.02
2017-11-18T11:14:50.685Z,5.99
2017-11-18T11:15:50.678Z,5.92
2017-11-18T11:16:51.029Z,6.09
2017-11-18T11:17:50.699Z,6.05
2017-11-18T11:18:50.349Z,6.02
2017-11-18T11:19:51.615Z,5.99
2017-11-18T11:20:51.547Z,6.07
2017-11-18T11:21:50.697Z,6.03
2017-11-18T11:22:51.286Z,6.09
2017-11-18T11:23:50.725Z,6.05
2017-11-18T11:24:51.229Z,6.14
2017-11-18T11:25:50.980Z,6.17
2017-11-18T11:26:51.945Z,6.17
2017-11-18T11:27:51.407Z,6.25
2017-11-18T11:28:51.699Z,6.28
